Time;durP1;ratioP1;P1;durP2;ratioP2;P2;SDS_P1;SDS_P2;PMS_P1;PMS_P2;Temp;Humidity;BMP_temperature;BMP_pressure;BME280_temperature;BME280_humidity;BME280_pressure;Samples;Min_cycle;Max_cycle;Signal;HPM_P1;HPM_P2
2020/12/08 00:01:50;;;;;;;11.95;9.02;;;3.70;99.90;;;;;;5062371;28;20266;-75
2020/12/08 00:04:18;;;;;;;12.93;8.52;;;3.60;99.90;;;;;;5065770;28;20214;-74
2020/12/08 00:06:45;;;;;;;15.15;10.18;;;3.60;99.90;;;;;;5064100;28;21678;-73
2020/12/08 00:09:13;;;;;;;13.52;8.93;;;3.60;36.40;;;;;;5065603;28;20218;-76
2020/12/08 00:11:40;;;;;;;13.65;9.43;;;3.50;99.90;;;;;;5055525;28;20227;-74
2020/12/08 00:14:11;;;;;;;15.98;10.75;;;3.50;99.90;;;;;;5058130;28;20225;-72
2020/12/08 00:16:39;;;;;;;15.38;9.77;;;3.50;99.90;;;;;;5055702;28;20253;-74
2020/12/08 00:19:10;;;;;;;14.10;9.57;;;3.50;99.90;;;;;;5058746;28;20640;-74
2020/12/08 00:21:37;;;;;;;14.88;10.00;;;3.40;99.90;;;;;;5057467;28;20305;-73
2020/12/08 00:24:05;;;;;;;16.92;9.98;;;3.40;99.90;;;;;;5058882;28;20218;-75
2020/12/08 00:26:32;;;;;;;12.63;8.82;;;3.40;99.90;;;;;;5056161;28;21080;-74
2020/12/08 00:28:59;;;;;;;13.27;9.35;;;3.30;99.90;;;;;;5057403;28;20212;-74
2020/12/08 00:31:28;;;;;;;13.35;9.88;;;3.30;99.90;;;;;;5056546;28;20228;-74
2020/12/08 00:33:55;;;;;;;13.63;8.52;;;3.40;99.90;;;;;;5056173;28;20223;-75
2020/12/08 00:36:23;;;;;;;17.10;9.82;;;3.40;99.90;;;;;;5062915;28;20234;-73
2020/12/08 00:38:50;;;;;;;12.40;8.65;;;3.40;99.90;;;;;;5056075;28;20221;-74
2020/12/08 00:41:18;;;;;;;15.23;9.60;;;3.30;99.90;;;;;;5055556;28;20469;-74
2020/12/08 00:43:46;;;;;;;14.75;9.80;;;3.30;99.90;;;;;;5058472;28;20208;-74
2020/12/08 00:46:15;;;;;;;13.23;9.35;;;3.30;99.90;;;;;;5054755;28;20226;-73
2020/12/08 00:48:44;;;;;;;13.18;9.65;;;3.30;99.90;;;;;;5054295;28;20303;-72
2020/12/08 00:51:11;;;;;;;13.15;9.45;;;3.40;99.90;;;;;;5056790;28;20307;-73
2020/12/08 00:53:38;;;;;;;14.05;10.02;;;3.40;99.90;;;;;;5055789;28;20241;-72
2020/12/08 00:56:09;;;;;;;13.18;9.75;;;3.50;99.90;;;;;;5060074;28;20719;-73
2020/12/08 00:58:36;;;;;;;12.93;9.10;;;3.40;99.90;;;;;;5063332;28;20303;-75
2020/12/08 01:01:05;;;;;;;12.25;9.15;;;3.40;99.90;;;;;;5062032;28;20204;-74
2020/12/08 01:03:34;;;;;;;13.95;9.18;;;3.40;99.90;;;;;;5064667;28;20711;-73
2020/12/08 01:06:02;;;;;;;14.50;9.85;;;3.50;99.90;;;;;;5062057;28;20249;-74
2020/12/08 01:08:30;;;;;;;13.75;9.00;;;3.50;99.90;;;;;;5055868;28;20247;-73
2020/12/08 01:10:57;;;;;;;13.95;10.07;;;3.30;99.90;;;;;;5056159;28;20223;-74
2020/12/08 01:13:24;;;;;;;15.30;9.77;;;3.40;99.90;;;;;;5059436;28;20229;-75
2020/12/08 01:15:52;;;;;;;13.82;10.18;;;3.30;99.90;;;;;;5060607;28;20260;-73
2020/12/08 01:18:19;;;;;;;14.20;8.98;;;3.40;99.90;;;;;;5065501;28;20210;-73
2020/12/08 01:20:46;;;;;;;14.40;9.93;;;3.50;99.90;;;;;;5063167;28;20712;-74
2020/12/08 01:23:15;;;;;;;15.05;10.02;;;3.50;99.90;;;;;;5060425;28;20600;-73
2020/12/08 01:25:42;;;;;;;14.00;10.00;;;3.50;99.90;;;;;;5060572;28;20232;-73
2020/12/08 01:28:09;;;;;;;13.73;9.63;;;3.60;99.90;;;;;;5061027;28;20290;-74
2020/12/08 01:30:36;;;;;;;13.60;9.98;;;3.60;99.90;;;;;;5059887;28;20210;-73
2020/12/08 01:33:03;;;;;;;14.02;10.30;;;3.60;99.90;;;;;;5061355;28;20226;-73
2020/12/08 01:35:30;;;;;;;12.80;9.52;;;3.50;63.70;;;;;;5063212;28;20593;-75
2020/12/08 01:37:57;;;;;;;15.00;9.88;;;3.40;99.90;;;;;;5057511;28;20215;-74
2020/12/08 01:40:25;;;;;;;14.45;9.57;;;3.30;99.90;;;;;;5056994;28;20218;-74
2020/12/08 01:42:52;;;;;;;17.25;11.43;;;3.30;99.90;;;;;;5057324;28;20225;-74
2020/12/08 01:45:19;;;;;;;16.20;11.27;;;3.30;99.90;;;;;;5062380;28;20213;-75
2020/12/08 01:47:46;;;;;;;17.23;11.27;;;3.40;99.90;;;;;;5063069;28;20295;-73
2020/12/08 01:50:14;;;;;;;13.27;9.82;;;3.50;99.90;;;;;;5061824;28;21084;-74
2020/12/08 01:52:42;;;;;;;12.27;9.05;;;3.50;99.90;;;;;;5059731;28;20545;-75
2020/12/08 01:55:13;;;;;;;13.23;9.25;;;3.50;99.90;;;;;;5063896;28;20218;-74
2020/12/08 01:57:41;;;;;;;16.38;10.38;;;3.50;99.90;;;;;;5068360;28;20243;-73
2020/12/08 02:00:09;;;;;;;13.35;9.30;;;3.50;99.90;;;;;;5064433;28;20218;-76
2020/12/08 02:02:36;;;;;;;12.38;9.50;;;3.60;99.90;;;;;;5059065;28;20202;-75
2020/12/08 02:05:05;;;;;;;15.40;10.73;;;3.60;99.90;;;;;;5061889;28;20594;-74
2020/12/08 02:07:32;;;;;;;14.43;10.15;;;3.60;99.90;;;;;;5057015;28;20310;-74
2020/12/08 02:09:59;;;;;;;15.20;10.00;;;3.60;99.90;;;;;;5058815;28;20304;-74
2020/12/08 02:12:26;;;;;;;13.85;9.88;;;3.60;99.90;;;;;;5055226;28;20259;-74
2020/12/08 02:14:54;;;;;;;15.43;9.75;;;3.60;24.80;;;;;;5061132;28;20233;-73
2020/12/08 02:17:21;;;;;;;13.25;9.23;;;3.50;1.00;;;;;;5062659;28;20225;-73
2020/12/08 02:19:49;;;;;;;14.65;8.45;;;3.50;1.00;;;;;;5063234;28;21548;-74
2020/12/08 02:22:17;;;;;;;13.07;8.82;;;3.40;99.90;;;;;;5063975;28;20201;-72
2020/12/08 02:24:44;;;;;;;13.35;9.82;;;3.40;41.10;;;;;;5067259;28;20202;-73
2020/12/08 02:27:11;;;;;;;14.45;9.90;;;3.30;99.90;;;;;;5065542;28;20240;-72
2020/12/08 02:29:38;;;;;;;16.85;11.23;;;3.20;99.90;;;;;;5059772;28;20206;-73
2020/12/08 02:32:05;;;;;;;14.90;10.25;;;3.20;99.90;;;;;;5064769;28;20206;-73
2020/12/08 02:34:32;;;;;;;13.52;9.10;;;3.00;99.90;;;;;;5068537;28;20206;-73
2020/12/08 02:36:59;;;;;;;15.05;10.73;;;3.10;99.90;;;;;;5065551;28;20229;-73
2020/12/08 02:39:27;;;;;;;15.93;10.95;;;3.20;99.90;;;;;;5066167;28;20255;-71
2020/12/08 02:41:55;;;;;;;15.38;10.73;;;3.10;99.90;;;;;;5068189;28;20830;-73
2020/12/08 02:44:22;;;;;;;14.02;9.45;;;3.00;99.90;;;;;;5064870;28;20271;-72
2020/12/08 02:46:50;;;;;;;12.93;9.07;;;3.10;99.90;;;;;;5062799;28;20687;-72
2020/12/08 02:49:18;;;;;;;13.20;9.18;;;3.20;99.90;;;;;;5065118;28;20217;-72
2020/12/08 02:51:45;;;;;;;12.70;8.45;;;3.30;99.90;;;;;;5056934;28;20209;-72
2020/12/08 02:54:12;;;;;;;13.77;9.45;;;3.40;99.90;;;;;;5062773;28;20668;-73
2020/12/08 02:56:40;;;;;;;13.35;9.75;;;3.50;99.90;;;;;;5064909;28;20795;-73
2020/12/08 02:59:07;;;;;;;14.30;9.48;;;3.50;1.00;;;;;;5060610;28;20210;-72
2020/12/08 03:01:35;;;;;;;14.38;10.15;;;3.50;1.00;;;;;;5063114;28;20309;-73
2020/12/08 03:04:02;;;;;;;12.57;9.68;;;3.50;99.90;;;;;;5069142;28;20684;-71
2020/12/08 03:06:29;;;;;;;14.95;9.65;;;3.50;1.00;;;;;;5067112;28;20636;-73
2020/12/08 03:08:56;;;;;;;12.95;8.20;;;3.60;1.00;;;;;;5068499;28;20884;-72
2020/12/08 03:11:30;;;;;;;14.35;11.02;;;3.50;1.00;;;;;;5066738;28;20217;-74
2020/12/08 03:13:59;;;;;;;14.95;9.30;;;3.50;1.00;;;;;;5061550;28;20209;-72
2020/12/08 03:16:26;;;;;;;15.90;9.85;;;3.50;1.00;;;;;;5065610;28;20423;-73
2020/12/08 03:18:53;;;;;;;15.20;10.13;;;3.60;1.00;;;;;;5067553;28;20205;-73
2020/12/08 03:21:20;;;;;;;14.30;9.07;;;3.50;1.00;;;;;;5058444;28;20214;-72
2020/12/08 03:23:48;;;;;;;12.23;9.05;;;3.50;1.00;;;;;;5060299;28;20255;-73
2020/12/08 03:26:20;;;;;;;15.75;10.15;;;3.50;1.00;;;;;;5059709;28;20336;-73
2020/12/08 03:28:51;;;;;;;13.30;9.20;;;3.50;1.00;;;;;;5058560;28;20214;-71
2020/12/08 03:31:19;;;;;;;13.60;9.25;;;3.40;1.00;;;;;;5058630;28;20239;-73
2020/12/08 03:33:47;;;;;;;16.90;10.02;;;3.50;1.00;;;;;;5058864;28;20196;-73
2020/12/08 03:36:15;;;;;;;11.10;8.30;;;3.30;1.00;;;;;;5059557;28;20234;-73
2020/12/08 03:38:43;;;;;;;16.13;10.60;;;3.40;1.00;;;;;;5055450;28;20293;-73
2020/12/08 03:41:10;;;;;;;16.95;10.98;;;3.30;1.00;;;;;;5059272;28;20218;-73
2020/12/08 03:43:37;;;;;;;12.68;9.50;;;3.30;1.00;;;;;;5061013;28;20733;-74
2020/12/08 03:46:05;;;;;;;14.75;9.15;;;3.30;1.00;;;;;;5061108;28;21221;-73
2020/12/08 03:48:33;;;;;;;13.73;8.63;;;3.30;1.00;;;;;;5055522;28;20223;-74
2020/12/08 03:51:00;;;;;;;14.50;9.05;;;3.30;1.00;;;;;;5065838;28;20849;-73
2020/12/08 03:53:27;;;;;;;15.80;10.30;;;3.30;1.00;;;;;;5053946;28;20301;-74
2020/12/08 03:55:54;;;;;;;13.25;9.57;;;3.20;1.00;;;;;;5060361;28;20751;-73
2020/12/08 03:58:21;;;;;;;15.40;10.40;;;3.20;1.00;;;;;;5062854;28;20237;-73
2020/12/08 04:00:48;;;;;;;13.68;9.75;;;3.20;18.40;;;;;;5063549;28;20345;-75
2020/12/08 04:03:15;;;;;;;17.63;11.45;;;3.20;17.80;;;;;;5063940;28;21049;-74
2020/12/08 04:05:43;;;;;;;14.10;9.27;;;3.20;1.00;;;;;;5063339;28;20593;-73
2020/12/08 04:08:10;;;;;;;18.17;10.90;;;3.10;1.00;;;;;;5058820;28;20226;-73
2020/12/08 04:10:38;;;;;;;16.77;9.65;;;3.10;1.00;;;;;;5057524;28;20252;-73
2020/12/08 04:13:06;;;;;;;16.20;10.80;;;2.90;1.00;;;;;;5059003;28;20229;-73
2020/12/08 04:15:33;;;;;;;17.60;11.77;;;2.80;99.90;;;;;;5063704;28;20287;-72
2020/12/08 04:18:00;;;;;;;17.85;10.50;;;2.90;99.90;;;;;;5059353;28;21142;-73
2020/12/08 04:20:28;;;;;;;16.30;10.75;;;2.90;99.90;;;;;;5057325;28;20228;-73
2020/12/08 04:22:56;;;;;;;16.95;10.93;;;3.00;99.90;;;;;;5062507;28;20678;-73
2020/12/08 04:25:23;;;;;;;17.13;10.88;;;3.00;99.90;;;;;;5057704;28;20601;-73
2020/12/08 04:27:50;;;;;;;19.48;10.43;;;3.10;99.90;;;;;;5060324;28;20226;-73
2020/12/08 04:30:17;;;;;;;16.23;10.18;;;3.10;99.90;;;;;;5057343;28;20210;-73
2020/12/08 04:32:44;;;;;;;20.27;12.55;;;3.10;52.10;;;;;;5055029;28;20210;-72
2020/12/08 04:35:11;;;;;;;17.13;12.15;;;3.10;99.90;;;;;;5058606;28;20285;-73
2020/12/08 04:37:38;;;;;;;19.98;10.70;;;3.00;99.90;;;;;;5058487;28;20213;-73
2020/12/08 04:40:06;;;;;;;20.25;11.90;;;3.00;99.90;;;;;;5055021;28;20234;-73
2020/12/08 04:42:33;;;;;;;17.55;10.85;;;3.10;99.90;;;;;;5054375;28;20210;-72
2020/12/08 04:45:01;;;;;;;18.48;10.95;;;3.00;99.90;;;;;;5057713;28;20207;-74
2020/12/08 04:47:33;;;;;;;16.33;10.80;;;3.00;99.90;;;;;;5060737;28;20224;-73
2020/12/08 04:50:01;;;;;;;15.68;10.63;;;3.10;99.90;;;;;;5063406;28;20220;-72
2020/12/08 04:52:28;;;;;;;18.60;11.68;;;3.20;99.90;;;;;;5061473;28;20213;-74
2020/12/08 04:54:56;;;;;;;16.40;11.32;;;3.20;18.60;;;;;;5066608;28;20303;-73
2020/12/08 04:57:24;;;;;;;16.88;10.70;;;3.10;1.00;;;;;;5074536;28;20235;-73
2020/12/08 05:00:01;;;;;;;17.33;10.55;;;3.20;99.90;;;;;;5063013;28;20222;-73
2020/12/08 05:02:28;;;;;;;20.02;12.13;;;3.20;1.00;;;;;;5057560;28;20214;-74
2020/12/08 05:04:56;;;;;;;20.38;11.88;;;3.20;18.50;;;;;;5061178;28;20219;-74
2020/12/08 05:07:27;;;;;;;20.00;13.02;;;3.30;1.00;;;;;;5059344;28;20342;-74
2020/12/08 05:09:54;;;;;;;19.08;13.20;;;3.30;1.00;;;;;;5057386;28;20313;-75
2020/12/08 05:12:24;;;;;;;16.30;11.43;;;3.40;1.00;;;;;;5057170;28;20215;-74
2020/12/08 05:14:52;;;;;;;18.02;10.95;;;3.40;1.00;;;;;;5062431;28;21616;-74
2020/12/08 05:17:23;;;;;;;16.60;10.35;;;3.30;1.00;;;;;;5063621;28;20317;-74
2020/12/08 05:20:02;;;;;;;19.40;10.85;;;3.30;1.00;;;;;;5059143;28;20696;-74
2020/12/08 05:22:29;;;;;;;19.23;10.30;;;3.30;99.90;;;;;;5061941;28;20512;-75
2020/12/08 05:25:08;;;;;;;17.80;11.68;;;3.30;17.10;;;;;;5060183;28;20557;-74
2020/12/08 05:27:36;;;;;;;17.50;10.77;;;3.30;1.00;;;;;;5059215;28;20233;-73
2020/12/08 05:30:06;;;;;;;17.30;11.10;;;3.20;1.00;;;;;;5055808;28;20227;-74
2020/12/08 05:32:39;;;;;;;20.45;11.77;;;3.20;1.00;;;;;;5061562;28;20215;-74
2020/12/08 05:35:08;;;;;;;15.32;10.63;;;3.30;1.00;;;;;;5060174;28;20218;-74
2020/12/08 05:37:36;;;;;;;19.45;11.32;;;3.20;1.00;;;;;;5059060;28;20292;-74
2020/12/08 05:40:08;;;;;;;18.63;11.77;;;3.10;33.00;;;;;;5056953;28;20547;-74
2020/12/08 05:42:38;;;;;;;20.73;12.55;;;3.10;99.90;;;;;;5057299;28;20560;-74
2020/12/08 05:45:08;;;;;;;21.58;12.43;;;3.10;99.90;;;;;;5059154;28;20620;-75
2020/12/08 05:47:43;;;;;;;16.35;11.32;;;3.20;99.90;;;;;;5055769;28;20240;-75
2020/12/08 05:50:11;;;;;;;22.75;13.88;;;3.10;1.00;;;;;;5057126;28;20259;-75
2020/12/08 05:52:40;;;;;;;20.58;13.77;;;3.20;99.90;;;;;;5055725;28;20209;-75
2020/12/08 05:55:09;;;;;;;19.77;13.40;;;3.20;1.00;;;;;;5056521;28;20225;-75
2020/12/08 05:57:37;;;;;;;18.38;12.77;;;3.20;1.00;;;;;;5059134;28;20717;-75
2020/12/08 06:00:06;;;;;;;18.50;13.13;;;3.10;82.80;;;;;;5055589;28;20422;-75
2020/12/08 06:02:34;;;;;;;23.60;13.05;;;3.20;18.20;;;;;;5055483;28;20749;-74
2020/12/08 06:05:01;;;;;;;18.92;13.13;;;3.20;99.90;;;;;;5055221;28;20707;-76
2020/12/08 06:07:30;;;;;;;21.08;13.90;;;3.20;99.90;;;;;;5050843;28;20234;-75
2020/12/08 06:10:07;;;;;;;21.80;12.43;;;3.30;99.90;;;;;;5063506;28;20760;-76
2020/12/08 06:12:35;;;;;;;21.85;12.38;;;3.30;63.30;;;;;;5064358;28;20219;-78
2020/12/08 06:15:15;;;;;;;18.83;12.30;;;3.30;1.00;;;;;;5063292;28;20671;-75
2020/12/08 06:17:46;;;;;;;16.92;10.57;;;3.30;1.00;;;;;;5061910;28;20247;-77
2020/12/08 06:20:14;;;;;;;17.55;11.70;;;3.30;19.70;;;;;;5061233;28;20280;-76
2020/12/08 06:22:41;;;;;;;18.17;12.23;;;3.20;33.50;;;;;;5054031;28;20259;-77
2020/12/08 06:25:14;;;;;;;19.17;12.85;;;3.20;64.30;;;;;;5076521;28;20216;-77
2020/12/08 06:27:41;;;;;;;19.25;12.60;;;3.10;99.90;;;;;;5054801;28;20312;-77
2020/12/08 06:30:10;;;;;;;18.60;12.95;;;3.10;99.90;;;;;;5062512;28;20316;-77
2020/12/08 06:32:37;;;;;;;21.95;13.73;;;3.10;99.90;;;;;;5061937;28;20223;-77
2020/12/08 06:35:08;;;;;;;28.60;14.20;;;3.00;99.90;;;;;;5063468;28;20204;-76
2020/12/08 06:37:36;;;;;;;26.52;14.27;;;3.00;99.90;;;;;;5056450;28;20327;-76
2020/12/08 06:40:11;;;;;;;27.70;15.07;;;2.90;99.90;;;;;;5063915;28;20225;-76
2020/12/08 06:42:38;;;;;;;24.58;16.00;;;2.80;99.90;;;;;;5061904;28;20213;-77
2020/12/08 06:45:11;;;;;;;22.70;13.88;;;2.70;99.90;;;;;;5060608;28;20221;-77
2020/12/08 06:47:39;;;;;;;23.83;14.00;;;2.50;99.90;;;;;;5063155;28;20231;-77
2020/12/08 06:50:07;;;;;;;25.95;15.85;;;2.50;99.90;;;;;;5057879;28;20619;-77
2020/12/08 06:52:35;;;;;;;27.23;14.60;;;2.40;99.90;;;;;;5059433;28;20218;-76
2020/12/08 06:55:04;;;;;;;22.40;13.45;;;2.30;1.00;;;;;;5062583;28;20695;-76
2020/12/08 06:57:31;;;;;;;25.75;15.38;;;2.30;1.00;;;;;;5061602;28;20251;-76
2020/12/08 07:00:05;;;;;;;23.10;14.73;;;2.20;1.00;;;;;;5065127;28;20633;-76
2020/12/08 07:02:49;;;;;;;27.83;14.85;;;2.30;1.00;;;;;;5063089;28;20224;-77
2020/12/08 07:05:18;;;;;;;24.50;15.02;;;2.20;1.00;;;;;;5063467;28;20580;-76
2020/12/08 07:07:46;;;;;;;23.00;14.40;;;2.20;1.00;;;;;;5065436;28;20232;-76
2020/12/08 07:10:15;;;;;;;23.02;13.73;;;2.30;1.00;;;;;;5061988;28;20753;-76
2020/12/08 07:12:44;;;;;;;25.85;15.00;;;2.30;1.00;;;;;;5056326;28;20241;-76
2020/12/08 07:15:19;;;;;;;25.52;15.10;;;2.30;1.00;;;;;;5060302;28;20719;-75
2020/12/08 07:17:55;;;;;;;24.73;14.30;;;2.40;1.00;;;;;;5065605;28;20219;-76
2020/12/08 07:20:23;;;;;;;23.40;14.02;;;2.50;1.00;;;;;;5066819;28;20220;-77
2020/12/08 07:22:51;;;;;;;28.77;14.15;;;2.50;1.00;;;;;;5064314;28;20239;-76
2020/12/08 07:25:19;;;;;;;24.33;14.50;;;2.50;1.00;;;;;;5068110;28;20230;-76
2020/12/08 07:27:47;;;;;;;24.75;14.20;;;2.50;99.90;;;;;;5069137;28;20754;-76
2020/12/08 07:30:17;;;;;;;22.77;13.40;;;2.40;99.90;;;;;;5061260;28;20281;-76
2020/12/08 07:32:44;;;;;;;24.10;15.38;;;2.40;99.90;;;;;;5064067;28;20244;-77
2020/12/08 07:35:22;;;;;;;26.52;16.35;;;2.40;1.00;;;;;;5064193;28;20257;-77
2020/12/08 07:37:51;;;;;;;28.40;16.45;;;2.40;1.00;;;;;;5061812;28;20441;-76
2020/12/08 07:40:20;;;;;;;22.80;14.05;;;2.50;1.00;;;;;;5064416;28;20213;-77
2020/12/08 07:42:51;;;;;;;36.97;19.48;;;2.50;1.00;;;;;;5066001;28;20219;-76
2020/12/08 07:45:20;;;;;;;31.73;17.35;;;2.60;1.00;;;;;;5064464;28;20230;-75
2020/12/08 07:47:51;;;;;;;27.05;15.55;;;2.60;1.00;;;;;;5066185;28;20225;-76
2020/12/08 07:50:25;;;;;;;25.73;15.50;;;2.60;99.90;;;;;;5067438;28;20219;-76
2020/12/08 07:52:57;;;;;;;28.05;14.75;;;2.60;99.90;;;;;;5069336;28;20668;-76
2020/12/08 07:55:25;;;;;;;29.30;15.82;;;2.60;99.90;;;;;;5075471;28;20314;-77
2020/12/08 07:57:52;;;;;;;28.75;14.45;;;2.60;99.90;;;;;;5068668;28;20672;-76
2020/12/08 08:00:20;;;;;;;22.30;13.70;;;2.60;99.90;;;;;;5068086;28;20302;-75
2020/12/08 08:02:47;;;;;;;21.58;13.88;;;2.60;99.90;;;;;;5066277;28;20219;-76
2020/12/08 08:05:16;;;;;;;26.52;15.38;;;2.60;99.90;;;;;;5066698;28;20692;-76
2020/12/08 08:07:44;;;;;;;28.00;15.02;;;2.70;1.00;;;;;;5064355;28;21045;-76
2020/12/08 08:10:11;;;;;;;23.52;14.68;;;2.90;1.00;;;;;;5065951;28;20241;-75
2020/12/08 08:12:39;;;;;;;23.90;15.57;;;3.10;1.00;;;;;;5058620;28;20276;-77
2020/12/08 08:15:07;;;;;;;24.75;14.55;;;3.50;99.90;;;;;;5060671;28;20675;-77
2020/12/08 08:17:34;;;;;;;22.52;14.30;;;4.10;99.90;;;;;;5067737;28;20643;-77
2020/12/08 08:20:02;;;;;;;18.13;12.38;;;4.60;1.00;;;;;;5064504;28;20309;-76
2020/12/08 08:22:29;;;;;;;19.73;13.70;;;5.30;1.00;;;;;;5061332;28;20220;-77
2020/12/08 08:24:57;;;;;;;20.33;14.55;;;5.70;99.90;;;;;;5064721;28;20455;-77
2020/12/08 08:27:25;;;;;;;18.40;12.80;;;6.10;64.80;;;;;;5059723;28;20233;-78
2020/12/08 08:29:52;;;;;;;19.08;13.65;;;6.20;1.00;;;;;;5060462;28;20220;-74
2020/12/08 08:32:20;;;;;;;19.80;13.43;;;6.20;99.90;;;;;;5059269;28;20338;-76
2020/12/08 08:34:47;;;;;;;21.60;14.75;;;6.30;99.90;;;;;;5060807;28;20816;-75
2020/12/08 08:37:14;;;;;;;20.13;13.80;;;6.10;7.20;;;;;;5062786;28;20623;-76
2020/12/08 08:39:41;;;;;;;20.73;13.63;;;5.70;99.90;;;;;;5059057;28;20473;-77
2020/12/08 08:42:09;;;;;;;19.15;13.65;;;5.70;99.90;;;;;;5058311;28;20472;-75
2020/12/08 08:44:37;;;;;;;24.30;15.63;;;5.50;99.90;;;;;;5059902;28;20268;-75
2020/12/08 08:47:04;;;;;;;19.70;14.03;;;5.50;99.90;;;;;;5063895;28;20511;-75
2020/12/08 08:49:31;;;;;;;22.37;14.23;;;5.70;1.00;;;;;;5059893;28;21280;-75
2020/12/08 08:51:58;;;;;;;23.07;15.33;;;6.20;99.90;;;;;;5060678;28;20479;-77
2020/12/08 08:54:25;;;;;;;21.13;16.37;;;6.60;1.00;;;;;;5059800;28;20459;-75
2020/12/08 08:56:55;;;;;;;24.00;15.17;;;6.40;1.00;;;;;;5063970;28;20493;-76
2020/12/08 08:59:23;;;;;;;21.50;14.70;;;6.70;1.00;;;;;;5062698;28;20548;-75
2020/12/08 09:01:50;;;;;;;21.37;15.23;;;7.00;1.00;;;;;;5057524;28;20717;-75
2020/12/08 09:04:19;;;;;;;19.60;14.27;;;6.90;1.00;;;;;;5057391;28;20570;-75
2020/12/08 09:06:46;;;;;;;22.03;16.20;;;6.90;1.00;;;;;;5059445;28;20538;-76
2020/12/08 09:09:15;;;;;;;23.63;15.30;;;6.80;1.00;;;;;;5057772;28;21041;-76
2020/12/08 09:11:42;;;;;;;22.23;14.90;;;6.70;1.00;;;;;;5059320;28;20985;-75
2020/12/08 09:14:10;;;;;;;22.23;13.50;;;6.40;1.00;;;;;;5060441;28;20654;-75
2020/12/08 09:16:40;;;;;;;17.67;13.80;;;6.10;1.00;;;;;;5060104;28;20881;-75
2020/12/08 09:19:08;;;;;;;23.40;14.90;;;5.80;1.00;;;;;;5061484;28;20464;-77
2020/12/08 09:21:35;;;;;;;20.60;14.83;;;5.70;99.90;;;;;;5056285;28;20482;-75
2020/12/08 09:24:02;;;;;;;19.80;14.03;;;5.70;99.90;;;;;;5051743;28;20475;-75
2020/12/08 09:26:29;;;;;;;20.20;13.50;;;5.70;92.80;;;;;;5059443;28;20498;-75
2020/12/08 09:28:57;;;;;;;22.60;14.33;;;5.70;99.90;;;;;;5059500;28;20515;-75
2020/12/08 09:31:24;;;;;;;20.40;13.17;;;5.90;99.90;;;;;;5060688;28;20492;-76
2020/12/08 09:33:53;;;;;;;19.80;13.90;;;5.90;99.90;;;;;;5058153;28;20825;-76
2020/12/08 09:36:20;;;;;;;20.10;14.37;;;5.90;99.90;;;;;;5060269;28;20524;-76
2020/12/08 09:38:48;;;;;;;18.77;12.87;;;5.70;90.40;;;;;;5060059;28;20479;-77
2020/12/08 09:41:15;;;;;;;20.00;13.20;;;5.70;99.90;;;;;;5057898;28;20592;-76
2020/12/08 09:43:43;;;;;;;18.70;12.40;;;5.90;99.90;;;;;;5051936;28;20551;-77
2020/12/08 09:46:11;;;;;;;20.40;14.03;;;5.90;90.10;;;;;;5056547;28;20609;-75
2020/12/08 09:48:38;;;;;;;19.30;13.17;;;5.70;99.50;;;;;;5062111;28;20494;-76
2020/12/08 09:51:07;;;;;;;21.03;13.27;;;5.90;57.40;;;;;;5058709;28;20686;-76
2020/12/08 09:53:34;;;;;;;19.17;12.63;;;5.80;92.90;;;;;;5061657;28;20479;-76
2020/12/08 09:56:01;;;;;;;20.83;13.10;;;5.50;99.90;;;;;;5058935;28;20582;-76
2020/12/08 09:58:29;;;;;;;20.57;13.10;;;6.00;99.90;;;;;;5059611;28;20472;-76
2020/12/08 10:00:56;;;;;;;20.40;13.83;;;6.20;1.00;;;;;;5061872;28;20477;-76
2020/12/08 10:03:24;;;;;;;21.57;13.87;;;6.30;1.00;;;;;;5061728;28;20509;-77
2020/12/08 10:05:52;;;;;;;19.43;12.97;;;6.40;1.00;;;;;;5059155;28;20587;-78
2020/12/08 10:08:21;;;;;;;17.50;12.40;;;6.90;1.00;;;;;;5061336;28;20520;-78
2020/12/08 10:10:48;;;;;;;17.80;11.87;;;7.00;1.00;;;;;;5060969;28;20473;-77
2020/12/08 10:13:16;;;;;;;18.67;12.63;;;7.80;99.90;;;;;;5056170;28;20473;-77
2020/12/08 10:15:43;;;;;;;16.13;11.63;;;8.00;99.90;;;;;;5061634;28;21003;-77
2020/12/08 10:18:10;;;;;;;17.70;12.77;;;8.50;99.90;;;;;;5057102;28;20474;-77
2020/12/08 10:20:38;;;;;;;17.70;13.00;;;9.00;99.90;;;;;;5059250;28;20512;-77
2020/12/08 10:23:06;;;;;;;21.37;13.57;;;8.50;99.90;;;;;;5057547;28;20897;-77
2020/12/08 10:25:34;;;;;;;14.40;11.83;;;8.40;99.90;;;;;;5060408;28;20815;-77
2020/12/08 10:28:02;;;;;;;17.83;13.93;;;8.60;99.90;;;;;;5058604;28;20504;-78
2020/12/08 10:30:30;;;;;;;17.67;14.70;;;8.70;99.90;;;;;;5060762;28;20493;-76
2020/12/08 10:32:57;;;;;;;17.90;11.80;;;9.10;99.90;;;;;;5060155;28;20917;-77
2020/12/08 10:35:25;;;;;;;16.83;12.80;;;9.60;99.90;;;;;;5058283;28;20972;-77
2020/12/08 10:37:53;;;;;;;18.20;13.20;;;10.10;99.90;;;;;;5060995;28;20507;-78
2020/12/08 10:40:21;;;;;;;18.37;13.50;;;10.40;99.90;;;;;;5060862;28;20487;-78
2020/12/08 10:42:49;;;;;;;17.50;13.80;;;10.50;99.90;;;;;;5060956;28;20476;-78
2020/12/08 10:45:37;;;;;;;17.65;15.75;;;10.70;99.90;;;;;;5064723;28;20952;-78
2020/12/08 10:48:05;;;;;;;17.30;11.37;;;11.00;99.90;;;;;;5066873;28;21019;-77
2020/12/08 10:50:33;;;;;;;17.33;14.50;;;11.10;99.90;;;;;;5067236;28;20471;-79
2020/12/08 10:53:01;;;;;;;16.60;13.07;;;11.40;99.90;;;;;;5075054;28;20472;-79
2020/12/08 10:55:28;;;;;;;16.27;13.10;;;11.20;99.90;;;;;;5071283;28;20557;-78
2020/12/08 10:57:56;;;;;;;16.53;13.07;;;10.80;99.90;;;;;;5064662;28;20567;-77
2020/12/08 11:00:25;;;;;;;15.60;13.13;;;10.90;99.90;;;;;;5056974;28;20474;-77
2020/12/08 11:02:52;;;;;;;15.00;11.97;;;11.10;99.90;;;;;;5064764;28;20458;-77
2020/12/08 11:05:21;;;;;;;16.03;12.63;;;11.00;99.90;;;;;;5064562;28;20460;-77
2020/12/08 11:07:49;;;;;;;16.30;13.43;;;11.60;99.90;;;;;;5064959;28;20576;-78
2020/12/08 11:10:17;;;;;;;16.57;12.53;;;12.30;99.90;;;;;;5067910;28;20463;-77
2020/12/08 11:12:45;;;;;;;17.27;12.90;;;12.70;99.90;;;;;;5066021;28;20454;-79
2020/12/08 11:15:13;;;;;;;17.87;13.60;;;13.00;99.90;;;;;;5065017;28;20568;-78
2020/12/08 11:17:42;;;;;;;14.73;11.67;;;13.30;99.90;;;;;;5064062;28;20466;-78
2020/12/08 11:20:09;;;;;;;14.30;12.60;;;13.60;99.90;;;;;;5062781;28;20482;-77
2020/12/08 11:22:36;;;;;;;13.60;11.30;;;13.80;99.90;;;;;;5064310;28;20490;-77
2020/12/08 11:25:04;;;;;;;15.97;12.27;;;13.60;99.90;;;;;;5065256;28;20792;-78
2020/12/08 11:27:32;;;;;;;15.80;13.33;;;13.40;99.90;;;;;;5062581;28;20934;-79
2020/12/08 11:30:00;;;;;;;16.43;12.47;;;13.00;99.90;;;;;;5062706;28;20489;-76
2020/12/08 11:32:28;;;;;;;17.27;13.13;;;12.70;99.90;;;;;;5061954;28;20500;-77
2020/12/08 11:34:55;;;;;;;14.60;11.90;;;12.50;99.90;;;;;;5066379;28;20470;-78
2020/12/08 11:37:22;;;;;;;14.23;12.47;;;12.40;99.90;;;;;;5062769;28;20493;-77
2020/12/08 11:39:49;;;;;;;19.77;13.10;;;12.30;99.90;;;;;;5061948;28;20473;-77
2020/12/08 11:42:17;;;;;;;36.43;24.50;;;12.10;99.90;;;;;;5064396;28;20470;-78
2020/12/08 11:44:46;;;;;;;19.80;15.43;;;11.90;99.90;;;;;;5065868;28;20459;-77
2020/12/08 11:47:15;;;;;;;17.03;13.73;;;11.70;99.90;;;;;;5064578;28;20483;-77
2020/12/08 11:49:43;;;;;;;17.70;13.83;;;11.70;99.90;;;;;;5063330;28;20594;-77
2020/12/08 11:52:12;;;;;;;18.73;13.13;;;11.80;99.90;;;;;;5058547;28;20481;-77
2020/12/08 11:54:39;;;;;;;19.73;14.17;;;11.80;99.90;;;;;;5065127;28;20467;-78
2020/12/08 11:57:07;;;;;;;20.70;14.87;;;12.00;99.90;;;;;;5066213;28;20822;-77
2020/12/08 11:59:34;;;;;;;18.47;13.17;;;12.00;99.90;;;;;;5064416;28;20936;-78
2020/12/08 12:02:01;;;;;;;18.20;13.63;;;12.10;99.90;;;;;;5058516;28;20468;-77
2020/12/08 12:04:29;;;;;;;18.40;12.90;;;12.00;99.90;;;;;;5075666;28;20468;-77
2020/12/08 12:06:57;;;;;;;17.07;12.83;;;12.10;99.90;;;;;;5064153;28;20508;-77
2020/12/08 12:09:24;;;;;;;18.00;14.30;;;12.30;99.90;;;;;;5061941;28;20493;-77
2020/12/08 12:11:51;;;;;;;15.60;12.77;;;12.40;99.90;;;;;;5058052;28;20472;-77
2020/12/08 12:14:19;;;;;;;19.23;15.33;;;12.40;99.90;;;;;;5057514;28;20925;-77
2020/12/08 12:16:46;;;;;;;18.83;14.47;;;12.60;99.90;;;;;;5062399;28;20521;-78
2020/12/08 12:19:13;;;;;;;19.90;13.10;;;12.70;99.90;;;;;;5063173;28;20588;-78
2020/12/08 12:21:41;;;;;;;18.87;13.47;;;12.70;99.90;;;;;;5062431;28;20478;-77
2020/12/08 12:24:09;;;;;;;15.67;13.13;;;12.80;99.90;;;;;;5061125;28;20568;-77
2020/12/08 12:26:44;;;;;;;17.10;13.70;;;12.60;99.90;;;;;;5063465;28;20503;-77
2020/12/08 12:29:11;;;;;;;17.63;14.20;;;12.20;99.90;;;;;;5062254;28;20911;-78
2020/12/08 12:31:43;;;;;;;20.10;13.40;;;11.90;99.90;;;;;;5059291;28;20507;-80
2020/12/08 12:34:10;;;;;;;18.23;14.23;;;12.10;99.90;;;;;;5055893;28;20476;-76
2020/12/08 12:36:38;;;;;;;18.77;13.80;;;12.10;99.90;;;;;;5079168;28;20513;-77
2020/12/08 12:39:06;;;;;;;19.03;13.87;;;12.10;99.90;;;;;;5062625;28;20474;-74
2020/12/08 12:41:34;;;;;;;17.13;13.10;;;12.00;99.90;;;;;;5061902;28;20521;-76
2020/12/08 12:44:02;;;;;;;17.77;13.47;;;11.90;99.90;;;;;;5064950;28;20475;-76
2020/12/08 12:46:29;;;;;;;20.63;13.70;;;11.90;99.90;;;;;;5063894;28;20496;-76